sensor_id;sensor_type;location;lat;lon;timestamp;pressure;altitude;pressure_sealevel;temperature;humidity
22830;BME280;11581;51.250;6.778;2022-12-18T00:02:26;102456.09;;;-0.38;61.07
22830;BME280;11581;51.250;6.778;2022-12-18T00:04:54;102447.53;;;-0.46;60.86
22830;BME280;11581;51.250;6.778;2022-12-18T00:07:21;102464.81;;;-0.39;61.29
22830;BME280;11581;51.250;6.778;2022-12-18T00:09:47;102455.44;;;-0.48;61.37
22830;BME280;11581;51.250;6.778;2022-12-18T00:12:14;102461.59;;;-0.49;61.42
22830;BME280;11581;51.250;6.778;2022-12-18T00:14:44;102392.88;;;-0.98;60.86
22830;BME280;11581;51.250;6.778;2022-12-18T00:17:11;102465.00;;;-0.45;61.46
22830;BME280;11581;51.250;6.778;2022-12-18T00:19:37;102469.38;;;-0.46;61.35
22830;BME280;11581;51.250;6.778;2022-12-18T00:22:06;102441.84;;;-0.63;60.70
22830;BME280;11581;51.250;6.778;2022-12-18T00:24:33;102473.03;;;-0.53;61.14
22830;BME280;11581;51.250;6.778;2022-12-18T00:27:00;102360.09;;;-1.14;61.03
22830;BME280;11581;51.250;6.778;2022-12-18T00:29:27;102467.72;;;-0.50;61.23
22830;BME280;11581;51.250;6.778;2022-12-18T00:31:54;102459.03;;;-0.52;61.20
22830;BME280;11581;51.250;6.778;2022-12-18T00:34:21;102470.41;;;-0.53;61.22
22830;BME280;11581;51.250;6.778;2022-12-18T00:36:48;102469.59;;;-0.55;61.03
22830;BME280;11581;51.250;6.778;2022-12-18T00:39:16;102467.88;;;-0.56;61.52
22830;BME280;11581;51.250;6.778;2022-12-18T00:41:43;102464.38;;;-0.56;61.47
22830;BME280;11581;51.250;6.778;2022-12-18T00:44:43;102467.91;;;-0.57;61.30
22830;BME280;11581;51.250;6.778;2022-12-18T00:47:09;102455.09;;;-0.69;61.27
22830;BME280;11581;51.250;6.778;2022-12-18T00:49:36;102413.50;;;-0.84;61.11
22830;BME280;11581;51.250;6.778;2022-12-18T00:52:03;102418.75;;;-0.84;61.43
22830;BME280;11581;51.250;6.778;2022-12-18T00:54:31;102381.78;;;-1.09;61.29
22830;BME280;11581;51.250;6.778;2022-12-18T00:56:59;102438.63;;;-0.74;61.08
22830;BME280;11581;51.250;6.778;2022-12-18T00:59:26;102389.91;;;-1.19;61.25
22830;BME280;11581;51.250;6.778;2022-12-18T01:01:52;102477.63;;;-0.62;61.33
22830;BME280;11581;51.250;6.778;2022-12-18T01:04:20;102446.47;;;-0.74;61.26
22830;BME280;11581;51.250;6.778;2022-12-18T01:06:46;102398.47;;;-1.13;60.78
22830;BME280;11581;51.250;6.778;2022-12-18T01:09:13;102441.38;;;-0.80;60.78
22830;BME280;11581;51.250;6.778;2022-12-18T01:11:41;102467.22;;;-0.65;61.21
22830;BME280;11581;51.250;6.778;2022-12-18T01:14:10;102461.13;;;-0.66;61.01
22830;BME280;11581;51.250;6.778;2022-12-18T01:16:36;102454.25;;;-0.71;60.91
22830;BME280;11581;51.250;6.778;2022-12-18T01:19:03;102443.97;;;-0.79;61.21
22830;BME280;11581;51.250;6.778;2022-12-18T01:21:30;102458.53;;;-0.67;61.30
22830;BME280;11581;51.250;6.778;2022-12-18T01:23:57;102445.72;;;-0.79;60.83
22830;BME280;11581;51.250;6.778;2022-12-18T01:26:24;102457.78;;;-0.72;61.27
22830;BME280;11581;51.250;6.778;2022-12-18T01:28:56;102459.44;;;-0.70;60.98
22830;BME280;11581;51.250;6.778;2022-12-18T01:31:26;102466.47;;;-0.70;61.31
22830;BME280;11581;51.250;6.778;2022-12-18T01:33:54;102455.16;;;-0.72;61.66
22830;BME280;11581;51.250;6.778;2022-12-18T01:36:23;102461.31;;;-0.73;61.48
22830;BME280;11581;51.250;6.778;2022-12-18T01:38:52;102407.69;;;-0.97;61.02
22830;BME280;11581;51.250;6.778;2022-12-18T01:41:21;102388.84;;;-1.11;61.14
22830;BME280;11581;51.250;6.778;2022-12-18T01:43:51;102452.63;;;-0.77;61.00
22830;BME280;11581;51.250;6.778;2022-12-18T01:46:26;102435.38;;;-0.85;60.92
22830;BME280;11581;51.250;6.778;2022-12-18T01:48:57;102444.81;;;-0.78;60.95
22830;BME280;11581;51.250;6.778;2022-12-18T01:51:28;102448.34;;;-0.79;61.45
22830;BME280;11581;51.250;6.778;2022-12-18T01:53:59;102451.00;;;-0.81;61.15
22830;BME280;11581;51.250;6.778;2022-12-18T01:56:26;102455.34;;;-0.81;61.49
22830;BME280;11581;51.250;6.778;2022-12-18T01:58:56;102467.63;;;-0.82;61.52
22830;BME280;11581;51.250;6.778;2022-12-18T02:01:29;102457.16;;;-0.83;61.16
22830;BME280;11581;51.250;6.778;2022-12-18T02:04:19;102445.97;;;-0.91;61.08
22830;BME280;11581;51.250;6.778;2022-12-18T02:06:50;102450.38;;;-0.92;61.44
22830;BME280;11581;51.250;6.778;2022-12-18T02:09:26;102453.84;;;-0.91;61.49
22830;BME280;11581;51.250;6.778;2022-12-18T02:12:02;102472.97;;;-0.86;61.47
22830;BME280;11581;51.250;6.778;2022-12-18T02:14:38;102469.44;;;-0.85;61.51
22830;BME280;11581;51.250;6.778;2022-12-18T02:17:17;102456.38;;;-0.87;61.11
22830;BME280;11581;51.250;6.778;2022-12-18T02:19:54;102371.34;;;-1.48;61.13
22830;BME280;11581;51.250;6.778;2022-12-18T02:22:29;102464.25;;;-0.88;61.19
22830;BME280;11581;51.250;6.778;2022-12-18T02:25:13;102440.00;;;-0.96;61.13
22830;BME280;11581;51.250;6.778;2022-12-18T02:27:47;102454.69;;;-0.89;61.24
22830;BME280;11581;51.250;6.778;2022-12-18T02:30:16;102449.47;;;-0.91;61.24
22830;BME280;11581;51.250;6.778;2022-12-18T02:32:50;102441.66;;;-0.92;61.60
22830;BME280;11581;51.250;6.778;2022-12-18T02:35:22;102341.66;;;-1.47;61.39
22830;BME280;11581;51.250;6.778;2022-12-18T02:37:55;102449.50;;;-0.92;61.22
22830;BME280;11581;51.250;6.778;2022-12-18T02:40:24;102409.66;;;-1.05;61.63
22830;BME280;11581;51.250;6.778;2022-12-18T02:42:54;102431.19;;;-0.92;61.84
22830;BME280;11581;51.250;6.778;2022-12-18T02:45:25;102399.31;;;-1.11;61.80
22830;BME280;11581;51.250;6.778;2022-12-18T02:47:53;102438.13;;;-0.91;61.62
22830;BME280;11581;51.250;6.778;2022-12-18T02:50:26;102307.47;;;-1.79;61.61
22830;BME280;11581;51.250;6.778;2022-12-18T02:53:06;102445.91;;;-0.88;61.63
22830;BME280;11581;51.250;6.778;2022-12-18T02:55:48;102445.00;;;-0.87;61.33
22830;BME280;11581;51.250;6.778;2022-12-18T02:58:28;102402.91;;;-1.16;61.75
22830;BME280;11581;51.250;6.778;2022-12-18T03:01:07;102469.44;;;-0.85;61.52
22830;BME280;11581;51.250;6.778;2022-12-18T03:03:40;102427.63;;;-0.90;61.99
22830;BME280;11581;51.250;6.778;2022-12-18T03:06:10;102429.22;;;-0.84;62.12
22830;BME280;11581;51.250;6.778;2022-12-18T03:08:44;102442.31;;;-0.84;61.99
22830;BME280;11581;51.250;6.778;2022-12-18T03:11:14;102441.44;;;-0.83;61.86
22830;BME280;11581;51.250;6.778;2022-12-18T03:14:03;102438.81;;;-0.83;61.71
22830;BME280;11581;51.250;6.778;2022-12-18T03:16:34;102433.56;;;-0.82;62.02
22830;BME280;11581;51.250;6.778;2022-12-18T03:19:07;102403.34;;;-0.96;61.45
22830;BME280;11581;51.250;6.778;2022-12-18T03:21:43;102423.91;;;-0.81;61.70
22830;BME280;11581;51.250;6.778;2022-12-18T03:24:17;102417.09;;;-0.88;61.58
22830;BME280;11581;51.250;6.778;2022-12-18T03:26:47;102410.94;;;-0.87;61.78
22830;BME280;11581;51.250;6.778;2022-12-18T03:29:19;102408.72;;;-1.02;61.60
22830;BME280;11581;51.250;6.778;2022-12-18T03:31:52;102419.50;;;-0.79;61.85
22830;BME280;11581;51.250;6.778;2022-12-18T03:34:23;102415.19;;;-0.80;61.76
22830;BME280;11581;51.250;6.778;2022-12-18T03:36:53;102423.84;;;-0.78;61.86
22830;BME280;11581;51.250;6.778;2022-12-18T03:39:22;102443.09;;;-0.79;61.99
22830;BME280;11581;51.250;6.778;2022-12-18T03:42:01;102332.84;;;-1.43;61.70
22830;BME280;11581;51.250;6.778;2022-12-18T03:44:42;102435.19;;;-0.78;61.43
22830;BME280;11581;51.250;6.778;2022-12-18T03:47:15;102424.72;;;-0.78;61.56
22830;BME280;11581;51.250;6.778;2022-12-18T03:49:48;102425.59;;;-0.77;62.04
22830;BME280;11581;51.250;6.778;2022-12-18T03:52:25;102411.78;;;-0.85;61.68
22830;BME280;11581;51.250;6.778;2022-12-18T03:54:55;102390.91;;;-0.88;61.60
22830;BME280;11581;51.250;6.778;2022-12-18T03:57:27;102413.28;;;-0.75;61.36
22830;BME280;11581;51.250;6.778;2022-12-18T04:00:00;102418.53;;;-0.75;61.64
22830;BME280;11581;51.250;6.778;2022-12-18T04:02:43;102409.88;;;-0.77;61.65
22830;BME280;11581;51.250;6.778;2022-12-18T04:05:15;102410.72;;;-0.77;61.86
22830;BME280;11581;51.250;6.778;2022-12-18T04:07:45;102237.75;;;-1.80;61.59
22830;BME280;11581;51.250;6.778;2022-12-18T04:10:15;102399.59;;;-0.86;61.60
22830;BME280;11581;51.250;6.778;2022-12-18T04:12:44;102380.50;;;-0.91;61.76
22830;BME280;11581;51.250;6.778;2022-12-18T04:15:14;102410.75;;;-0.78;61.39
22830;BME280;11581;51.250;6.778;2022-12-18T04:17:47;102401.16;;;-0.79;61.68
22830;BME280;11581;51.250;6.778;2022-12-18T04:20:17;102402.94;;;-0.81;61.12
22830;BME280;11581;51.250;6.778;2022-12-18T04:22:45;102402.94;;;-0.81;61.57
22830;BME280;11581;51.250;6.778;2022-12-18T04:25:12;102381.38;;;-0.91;61.75
22830;BME280;11581;51.250;6.778;2022-12-18T04:27:49;102397.78;;;-0.84;61.50
22830;BME280;11581;51.250;6.778;2022-12-18T04:30:18;102382.31;;;-0.93;61.80
22830;BME280;11581;51.250;6.778;2022-12-18T04:32:45;102397.81;;;-0.86;61.58
22830;BME280;11581;51.250;6.778;2022-12-18T04:35:12;102406.59;;;-0.87;61.33
22830;BME280;11581;51.250;6.778;2022-12-18T04:37:42;102400.47;;;-0.87;61.76
22830;BME280;11581;51.250;6.778;2022-12-18T04:40:10;102378.91;;;-0.98;61.39
22830;BME280;11581;51.250;6.778;2022-12-18T04:42:41;102365.09;;;-1.03;61.73
22830;BME280;11581;51.250;6.778;2022-12-18T04:45:08;102404.00;;;-0.88;61.41
22830;BME280;11581;51.250;6.778;2022-12-18T04:47:37;102328.19;;;-1.31;61.63
22830;BME280;11581;51.250;6.778;2022-12-18T04:50:07;102394.44;;;-0.89;61.21
22830;BME280;11581;51.250;6.778;2022-12-18T04:52:35;102412.81;;;-0.91;61.34
22830;BME280;11581;51.250;6.778;2022-12-18T04:55:02;102400.63;;;-0.92;61.49
22830;BME280;11581;51.250;6.778;2022-12-18T04:57:29;102378.91;;;-0.98;61.29
22830;BME280;11581;51.250;6.778;2022-12-18T04:59:56;102382.31;;;-0.93;61.41
22830;BME280;11581;51.250;6.778;2022-12-18T05:02:22;102299.59;;;-1.38;61.73
22830;BME280;11581;51.250;6.778;2022-12-18T05:04:51;102358.19;;;-1.07;61.54
22830;BME280;11581;51.250;6.778;2022-12-18T05:07:18;102251.25;;;-1.60;61.41
22830;BME280;11581;51.250;6.778;2022-12-18T05:09:44;102336.47;;;-1.11;61.38
22830;BME280;11581;51.250;6.778;2022-12-18T05:12:11;102380.63;;;-0.97;61.74
22830;BME280;11581;51.250;6.778;2022-12-18T05:14:38;102379.84;;;-0.99;61.58
22830;BME280;11581;51.250;6.778;2022-12-18T05:17:05;102354.81;;;-1.12;61.79
22830;BME280;11581;51.250;6.778;2022-12-18T05:19:32;102379.88;;;-1.01;61.81
22830;BME280;11581;51.250;6.778;2022-12-18T05:22:00;102347.84;;;-1.13;61.77
22830;BME280;11581;51.250;6.778;2022-12-18T05:24:27;102370.22;;;-1.00;61.87
22830;BME280;11581;51.250;6.778;2022-12-18T05:26:53;102372.84;;;-1.00;61.50
22830;BME280;11581;51.250;6.778;2022-12-18T05:29:20;102370.25;;;-1.02;61.69
22830;BME280;11581;51.250;6.778;2022-12-18T05:31:47;102370.25;;;-1.02;61.79
22830;BME280;11581;51.250;6.778;2022-12-18T05:34:14;102375.56;;;-1.03;61.67
22830;BME280;11581;51.250;6.778;2022-12-18T05:36:41;102379.06;;;-1.04;61.84
22830;BME280;11581;51.250;6.778;2022-12-18T05:39:09;102382.59;;;-1.05;61.57
22830;BME280;11581;51.250;6.778;2022-12-18T05:41:36;102361.91;;;-1.17;62.03
22830;BME280;11581;51.250;6.778;2022-12-18T05:44:03;102282.91;;;-1.72;61.78
22830;BME280;11581;51.250;6.778;2022-12-18T05:46:30;102383.53;;;-1.08;61.69
22830;BME280;11581;51.250;6.778;2022-12-18T05:48:59;102388.75;;;-1.08;62.08
22830;BME280;11581;51.250;6.778;2022-12-18T05:51:27;102400.94;;;-1.07;61.99
22830;BME280;11581;51.250;6.778;2022-12-18T05:53:54;102389.03;;;-1.20;61.61
22830;BME280;11581;51.250;6.778;2022-12-18T05:56:22;102361.47;;;-1.36;61.80
22830;BME280;11581;51.250;6.778;2022-12-18T05:58:51;102379.50;;;-1.22;61.83
22830;BME280;11581;51.250;6.778;2022-12-18T06:01:21;102411.50;;;-1.10;61.51
22830;BME280;11581;51.250;6.778;2022-12-18T06:03:48;102417.59;;;-1.09;61.57
22830;BME280;11581;51.250;6.778;2022-12-18T06:06:16;102415.84;;;-1.10;61.96
22830;BME280;11581;51.250;6.778;2022-12-18T06:08:46;102421.09;;;-1.10;61.56
22830;BME280;11581;51.250;6.778;2022-12-18T06:11:13;102341.16;;;-1.64;61.82
22830;BME280;11581;51.250;6.778;2022-12-18T06:13:43;102455.97;;;-1.08;62.33
22830;BME280;11581;51.250;6.778;2022-12-18T06:16:10;102457.69;;;-1.07;61.95
22830;BME280;11581;51.250;6.778;2022-12-18T06:18:37;102443.72;;;-1.06;61.85
22830;BME280;11581;51.250;6.778;2022-12-18T06:21:04;102427.41;;;-1.19;62.13
22830;BME280;11581;51.250;6.778;2022-12-18T06:23:31;102433.19;;;-1.03;62.27
22830;BME280;11581;51.250;6.778;2022-12-18T06:25:58;102433.09;;;-1.00;62.40
22830;BME280;11581;51.250;6.778;2022-12-18T06:28:25;102437.44;;;-0.99;62.21
22830;BME280;11581;51.250;6.778;2022-12-18T06:30:54;102420.97;;;-1.04;62.28
22830;BME280;11581;51.250;6.778;2022-12-18T06:33:21;102232.22;;;-2.06;62.20
22830;BME280;11581;51.250;6.778;2022-12-18T06:35:48;102439.91;;;-0.92;61.98
22830;BME280;11581;51.250;6.778;2022-12-18T06:38:14;102368.97;;;-1.19;61.89
22830;BME280;11581;51.250;6.778;2022-12-18T06:40:41;102380.81;;;-1.03;62.36
22830;BME280;11581;51.250;6.778;2022-12-18T06:43:08;102430.13;;;-0.85;61.78
22830;BME280;11581;51.250;6.778;2022-12-18T06:45:35;102403.03;;;-0.84;62.06
22830;BME280;11581;51.250;6.778;2022-12-18T06:48:03;102359.84;;;-1.03;61.62
22830;BME280;11581;51.250;6.778;2022-12-18T06:50:30;102244.50;;;-1.70;61.74
22830;BME280;11581;51.250;6.778;2022-12-18T06:52:57;102394.22;;;-0.80;61.60
22830;BME280;11581;51.250;6.778;2022-12-18T06:55:24;102356.13;;;-0.93;61.61
22830;BME280;11581;51.250;6.778;2022-12-18T06:57:51;102331.59;;;-1.27;61.35
22830;BME280;11581;51.250;6.778;2022-12-18T07:00:18;102356.13;;;-0.93;61.11
22830;BME280;11581;51.250;6.778;2022-12-18T07:02:45;102314.84;;;-1.20;61.50
22830;BME280;11581;51.250;6.778;2022-12-18T07:05:13;102255.47;;;-1.55;61.25
22830;BME280;11581;51.250;6.778;2022-12-18T07:07:40;102385.94;;;-1.00;61.33
22830;BME280;11581;51.250;6.778;2022-12-18T07:10:07;102356.25;;;-0.99;61.01
22830;BME280;11581;51.250;6.778;2022-12-18T07:12:34;102376.75;;;-0.81;61.28
22830;BME280;11581;51.250;6.778;2022-12-18T07:15:01;102384.63;;;-0.81;61.31
22830;BME280;11581;51.250;6.778;2022-12-18T07:17:28;102382.88;;;-0.81;61.62
22830;BME280;11581;51.250;6.778;2022-12-18T07:19:55;102382.88;;;-0.81;61.47
22830;BME280;11581;51.250;6.778;2022-12-18T07:22:24;102388.97;;;-0.80;61.25
22830;BME280;11581;51.250;6.778;2022-12-18T07:24:51;102396.81;;;-0.79;61.26
22830;BME280;11581;51.250;6.778;2022-12-18T07:27:18;102394.16;;;-0.77;61.83
22830;BME280;11581;51.250;6.778;2022-12-18T07:29:45;102391.50;;;-0.76;61.32
22830;BME280;11581;51.250;6.778;2022-12-18T07:32:12;102369.88;;;-0.85;61.39
22830;BME280;11581;51.250;6.778;2022-12-18T07:34:40;102383.59;;;-0.74;61.12
22830;BME280;11581;51.250;6.778;2022-12-18T07:37:07;102373.91;;;-0.72;61.16
22830;BME280;11581;51.250;6.778;2022-12-18T07:39:35;102375.66;;;-0.73;61.18
22830;BME280;11581;51.250;6.778;2022-12-18T07:42:03;102362.53;;;-0.71;61.59
22830;BME280;11581;51.250;6.778;2022-12-18T07:44:47;102367.69;;;-0.68;61.74
22830;BME280;11581;51.250;6.778;2022-12-18T07:47:14;102381.63;;;-0.66;61.46
22830;BME280;11581;51.250;6.778;2022-12-18T07:49:41;102347.78;;;-0.75;61.68
22830;BME280;11581;51.250;6.778;2022-12-18T07:52:08;102365.84;;;-0.63;61.25
22830;BME280;11581;51.250;6.778;2022-12-18T07:54:36;102349.59;;;-0.77;60.65
22830;BME280;11581;51.250;6.778;2022-12-18T07:57:03;102190.16;;;-1.59;61.31
22830;BME280;11581;51.250;6.778;2022-12-18T07:59:30;102345.84;;;-0.67;61.25
22830;BME280;11581;51.250;6.778;2022-12-18T08:01:57;102328.03;;;-0.88;61.48
22830;BME280;11581;51.250;6.778;2022-12-18T08:04:25;102366.06;;;-0.39;61.73
22830;BME280;11581;51.250;6.778;2022-12-18T08:06:52;102336.09;;;-0.29;61.47
22830;BME280;11581;51.250;6.778;2022-12-18T08:09:19;102311.84;;;-0.37;62.04
22830;BME280;11581;51.250;6.778;2022-12-18T08:11:48;102340.59;;;-0.02;62.35
22830;BME280;11581;51.250;6.778;2022-12-18T08:14:15;102340.94;;;0.17;62.96
22830;BME280;11581;51.250;6.778;2022-12-18T08:16:41;102321.66;;;0.18;62.80
22830;BME280;11581;51.250;6.778;2022-12-18T08:19:11;102294.78;;;0.39;62.39
22830;BME280;11581;51.250;6.778;2022-12-18T08:21:41;102334.56;;;0.82;61.44
22830;BME280;11581;51.250;6.778;2022-12-18T08:24:09;102302.84;;;0.88;61.55
22830;BME280;11581;51.250;6.778;2022-12-18T08:26:36;102207.25;;;0.40;60.82
22830;BME280;11581;51.250;6.778;2022-12-18T08:29:04;102274.75;;;1.16;60.91
22830;BME280;11581;51.250;6.778;2022-12-18T08:31:31;102210.91;;;0.88;59.91
22830;BME280;11581;51.250;6.778;2022-12-18T08:33:58;102289.06;;;1.58;60.40
22830;BME280;11581;51.250;6.778;2022-12-18T08:36:25;102242.69;;;1.31;59.03
22830;BME280;11581;51.250;6.778;2022-12-18T08:38:52;102227.81;;;1.30;59.66
22830;BME280;11581;51.250;6.778;2022-12-18T08:41:19;102311.81;;;1.84;58.53
22830;BME280;11581;51.250;6.778;2022-12-18T08:43:47;102245.25;;;1.57;58.63
22830;BME280;11581;51.250;6.778;2022-12-18T08:46:35;102289.94;;;1.82;57.51
22830;BME280;11581;51.250;6.778;2022-12-18T08:49:03;102214.69;;;1.30;57.79
22830;BME280;11581;51.250;6.778;2022-12-18T08:51:31;102192.88;;;1.27;58.18
22830;BME280;11581;51.250;6.778;2022-12-18T08:54:00;102324.25;;;2.03;58.11
22830;BME280;11581;51.250;6.778;2022-12-18T08:56:26;102319.72;;;2.07;57.70
22830;BME280;11581;51.250;6.778;2022-12-18T08:58:54;102309.09;;;2.10;57.32
22830;BME280;11581;51.250;6.778;2022-12-18T09:01:22;102299.31;;;2.13;57.03
22830;BME280;11581;51.250;6.778;2022-12-18T09:03:51;102188.53;;;1.50;57.04
22830;BME280;11581;51.250;6.778;2022-12-18T09:06:20;102304.97;;;2.26;56.84
22830;BME280;11581;51.250;6.778;2022-12-18T09:08:48;102300.34;;;2.33;57.03
22830;BME280;11581;51.250;6.778;2022-12-18T09:11:20;102294.88;;;2.37;55.72
22830;BME280;11581;51.250;6.778;2022-12-18T09:13:47;102247.88;;;2.05;56.79
22830;BME280;11581;51.250;6.778;2022-12-18T09:16:14;102301.59;;;2.46;56.42
22830;BME280;11581;51.250;6.778;2022-12-18T09:18:41;102299.72;;;2.48;56.50
22830;BME280;11581;51.250;6.778;2022-12-18T09:21:11;102309.28;;;2.50;55.50
22830;BME280;11581;51.250;6.778;2022-12-18T09:23:38;102291.78;;;2.49;55.86
22830;BME280;11581;51.250;6.778;2022-12-18T09:26:05;102302.19;;;2.52;56.55
22830;BME280;11581;51.250;6.778;2022-12-18T09:28:32;102302.88;;;2.57;56.31
22830;BME280;11581;51.250;6.778;2022-12-18T09:31:04;102303.44;;;2.65;55.76
22830;BME280;11581;51.250;6.778;2022-12-18T09:33:31;102303.94;;;2.75;56.45
22830;BME280;11581;51.250;6.778;2022-12-18T09:36:00;102213.56;;;2.29;55.42
22830;BME280;11581;51.250;6.778;2022-12-18T09:38:29;102292.88;;;2.87;55.38
22830;BME280;11581;51.250;6.778;2022-12-18T09:40:59;102270.28;;;2.81;54.94
22830;BME280;11581;51.250;6.778;2022-12-18T09:43:29;102245.16;;;2.73;54.54
22830;BME280;11581;51.250;6.778;2022-12-18T09:46:02;102207.88;;;2.62;55.20
22830;BME280;11581;51.250;6.778;2022-12-18T09:48:35;102235.03;;;2.84;55.12
22830;BME280;11581;51.250;6.778;2022-12-18T09:51:10;102283.06;;;3.12;54.04
22830;BME280;11581;51.250;6.778;2022-12-18T09:53:44;102243.25;;;2.98;54.19
22830;BME280;11581;51.250;6.778;2022-12-18T09:56:18;102203.97;;;2.92;53.94
22830;BME280;11581;51.250;6.778;2022-12-18T09:58:55;102254.88;;;3.34;53.67
22830;BME280;11581;51.250;6.778;2022-12-18T10:01:28;102265.81;;;3.45;54.73
22830;BME280;11581;51.250;6.778;2022-12-18T10:03:56;102220.78;;;3.29;54.00
22830;BME280;11581;51.250;6.778;2022-12-18T10:06:29;102191.47;;;3.17;53.18
22830;BME280;11581;51.250;6.778;2022-12-18T10:09:02;102256.72;;;3.52;52.81
22830;BME280;11581;51.250;6.778;2022-12-18T10:11:40;102261.22;;;3.50;52.55
22830;BME280;11581;51.250;6.778;2022-12-18T10:14:16;102173.59;;;3.03;52.41
22830;BME280;11581;51.250;6.778;2022-12-18T10:16:54;102178.53;;;3.11;52.15
22830;BME280;11581;51.250;6.778;2022-12-18T10:19:40;102249.84;;;3.48;52.25
22830;BME280;11581;51.250;6.778;2022-12-18T10:22:23;102243.75;;;3.47;52.69
22830;BME280;11581;51.250;6.778;2022-12-18T10:24:59;102139.31;;;2.83;52.70
22830;BME280;11581;51.250;6.778;2022-12-18T10:27:29;102219.47;;;3.39;53.59
22830;BME280;11581;51.250;6.778;2022-12-18T10:29:57;102109.53;;;2.81;53.68
22830;BME280;11581;51.250;6.778;2022-12-18T10:32:25;102125.84;;;2.91;53.51
22830;BME280;11581;51.250;6.778;2022-12-18T10:34:54;102196.25;;;3.47;53.69
22830;BME280;11581;51.250;6.778;2022-12-18T10:37:24;102232.28;;;3.67;53.46
22830;BME280;11581;51.250;6.778;2022-12-18T10:40:10;102218.81;;;3.73;51.79
22830;BME280;11581;51.250;6.778;2022-12-18T10:42:37;102162.16;;;3.43;53.22
22830;BME280;11581;51.250;6.778;2022-12-18T10:45:10;102110.06;;;3.09;52.17
22830;BME280;11581;51.250;6.778;2022-12-18T10:47:42;102124.06;;;3.30;51.77
22830;BME280;11581;51.250;6.778;2022-12-18T10:50:19;102077.16;;;3.18;51.81
22830;BME280;11581;51.250;6.778;2022-12-18T10:52:54;102214.44;;;3.92;51.79
22830;BME280;11581;51.250;6.778;2022-12-18T10:55:27;102193.03;;;3.98;52.09
22830;BME280;11581;51.250;6.778;2022-12-18T10:58:13;102218.28;;;4.03;51.31
22830;BME280;11581;51.250;6.778;2022-12-18T11:00:43;102181.91;;;4.10;53.02
22830;BME280;11581;51.250;6.778;2022-12-18T11:03:30;102147.50;;;3.93;51.30
22830;BME280;11581;51.250;6.778;2022-12-18T11:06:02;102088.72;;;3.71;51.88
22830;BME280;11581;51.250;6.778;2022-12-18T11:08:29;102148.41;;;4.10;52.85
22830;BME280;11581;51.250;6.778;2022-12-18T11:10:58;101927.38;;;2.89;52.37
22830;BME280;11581;51.250;6.778;2022-12-18T11:13:26;102175.00;;;4.43;52.13
22830;BME280;11581;51.250;6.778;2022-12-18T11:15:55;102114.94;;;4.11;52.25
22830;BME280;11581;51.250;6.778;2022-12-18T11:18:27;102181.41;;;4.56;51.05
22830;BME280;11581;51.250;6.778;2022-12-18T11:20:57;102171.38;;;4.62;51.71
22830;BME280;11581;51.250;6.778;2022-12-18T11:23:26;102173.72;;;4.68;51.10
22830;BME280;11581;51.250;6.778;2022-12-18T11:25:56;102162.53;;;4.63;51.34
22830;BME280;11581;51.250;6.778;2022-12-18T11:28:39;102157.31;;;4.79;49.56
22830;BME280;11581;51.250;6.778;2022-12-18T11:31:31;102166.72;;;4.85;49.54
22830;BME280;11581;51.250;6.778;2022-12-18T11:34:02;102121.66;;;4.71;49.86
22830;BME280;11581;51.250;6.778;2022-12-18T11:36:36;102143.50;;;4.91;50.23
22830;BME280;11581;51.250;6.778;2022-12-18T11:39:10;102017.47;;;4.06;49.45
22830;BME280;11581;51.250;6.778;2022-12-18T11:41:46;102154.00;;;4.93;49.61
22830;BME280;11581;51.250;6.778;2022-12-18T11:44:36;102124.44;;;4.85;49.63
22830;BME280;11581;51.250;6.778;2022-12-18T11:47:10;102142.56;;;4.75;49.41
22830;BME280;11581;51.250;6.778;2022-12-18T11:49:40;102137.41;;;4.89;49.76
22830;BME280;11581;51.250;6.778;2022-12-18T11:52:16;102082.22;;;4.49;48.71
22830;BME280;11581;51.250;6.778;2022-12-18T11:54:45;101997.38;;;4.04;49.97
22830;BME280;11581;51.250;6.778;2022-12-18T11:57:25;102077.09;;;4.46;48.81
22830;BME280;11581;51.250;6.778;2022-12-18T12:00:01;102069.06;;;4.30;48.90
22830;BME280;11581;51.250;6.778;2022-12-18T12:03:06;102121.22;;;4.61;48.70
22830;BME280;11581;51.250;6.778;2022-12-18T12:05:48;102126.00;;;4.54;48.93
22830;BME280;11581;51.250;6.778;2022-12-18T12:08:28;102112.28;;;4.46;48.54
22830;BME280;11581;51.250;6.778;2022-12-18T12:11:07;102111.75;;;4.40;49.09
22830;BME280;11581;51.250;6.778;2022-12-18T12:13:46;102113.75;;;4.35;49.37
22830;BME280;11581;51.250;6.778;2022-12-18T12:16:28;102054.13;;;3.95;49.28
22830;BME280;11581;51.250;6.778;2022-12-18T12:19:15;102122.03;;;4.27;49.32
22830;BME280;11581;51.250;6.778;2022-12-18T12:21:55;101854.03;;;2.80;49.61
22830;BME280;11581;51.250;6.778;2022-12-18T12:24:35;101936.63;;;3.34;49.63
22830;BME280;11581;51.250;6.778;2022-12-18T12:27:12;102097.00;;;4.17;49.83
22830;BME280;11581;51.250;6.778;2022-12-18T12:29:50;102163.91;;;4.18;49.95
22830;BME280;11581;51.250;6.778;2022-12-18T12:32:40;102092.75;;;3.79;49.57
22830;BME280;11581;51.250;6.778;2022-12-18T12:35:18;102091.81;;;4.16;49.99
22830;BME280;11581;51.250;6.778;2022-12-18T12:37:55;102094.44;;;4.16;49.63
22830;BME280;11581;51.250;6.778;2022-12-18T12:40:29;102100.81;;;4.12;50.61
22830;BME280;11581;51.250;6.778;2022-12-18T12:43:01;102077.97;;;4.11;50.30
22830;BME280;11581;51.250;6.778;2022-12-18T12:45:41;101930.91;;;3.25;50.26
22830;BME280;11581;51.250;6.778;2022-12-18T12:48:24;102067.72;;;4.05;49.83
22830;BME280;11581;51.250;6.778;2022-12-18T12:50:55;101903.72;;;2.87;50.78
22830;BME280;11581;51.250;6.778;2022-12-18T12:53:26;102089.06;;;4.00;50.45
22830;BME280;11581;51.250;6.778;2022-12-18T12:55:57;102069.06;;;3.78;50.54
22830;BME280;11581;51.250;6.778;2022-12-18T12:58:31;101862.72;;;2.63;50.23
22830;BME280;11581;51.250;6.778;2022-12-18T13:01:10;101861.41;;;2.53;49.53
22830;BME280;11581;51.250;6.778;2022-12-18T13:03:48;102094.00;;;3.89;50.07
22830;BME280;11581;51.250;6.778;2022-12-18T13:06:28;102125.91;;;3.85;49.84
22830;BME280;11581;51.250;6.778;2022-12-18T13:09:01;102081.16;;;3.82;50.31
22830;BME280;11581;51.250;6.778;2022-12-18T13:11:32;101759.13;;;1.88;50.05
22830;BME280;11581;51.250;6.778;2022-12-18T13:14:22;102086.81;;;3.74;50.62